sensor_id;sensor_type;location;lat;lon;timestamp;pressure;altitude;pressure_sealevel;temperature;humidity
67038;BME280;53940;53.204;6.590;2023-11-19T00:01:16;100416.16;;;21.70;42.83
67038;BME280;53940;53.204;6.590;2023-11-19T00:04:16;100415.31;;;21.69;42.80
67038;BME280;53940;53.204;6.590;2023-11-19T00:07:16;100414.44;;;21.68;43.00
67038;BME280;53940;53.204;6.590;2023-11-19T00:10:17;100403.72;;;21.68;43.01
67038;BME280;53940;53.204;6.590;2023-11-19T00:13:21;100399.34;;;21.67;43.00
67038;BME280;53940;53.204;6.590;2023-11-19T00:16:21;100392.16;;;21.68;42.95
67038;BME280;53940;53.204;6.590;2023-11-19T00:19:21;100391.31;;;21.67;43.00
67038;BME280;53940;53.204;6.590;2023-11-19T00:22:22;100380.59;;;21.67;42.97
67038;BME280;53940;53.204;6.590;2023-11-19T00:25:22;100376.22;;;21.66;42.87
67038;BME280;53940;53.204;6.590;2023-11-19T00:28:23;100376.06;;;21.68;43.25
67038;BME280;53940;53.204;6.590;2023-11-19T00:31:24;100366.19;;;21.68;43.08
67038;BME280;53940;53.204;6.590;2023-11-19T00:34:26;100368.84;;;21.68;43.11
67038;BME280;53940;53.204;6.590;2023-11-19T00:37:26;100369.59;;;21.71;42.91
67038;BME280;53940;53.204;6.590;2023-11-19T00:40:27;100371.28;;;21.72;43.04
67038;BME280;53940;53.204;6.590;2023-11-19T00:43:27;100372.94;;;21.73;43.25
67038;BME280;53940;53.204;6.590;2023-11-19T00:46:27;100370.94;;;21.75;43.13
67038;BME280;53940;53.204;6.590;2023-11-19T00:49:28;100356.53;;;21.76;43.11
67038;BME280;53940;53.204;6.590;2023-11-19T00:52:28;100352.88;;;21.77;43.12
67038;BME280;53940;53.204;6.590;2023-11-19T00:55:28;100350.84;;;21.79;43.24
67038;BME280;53940;53.204;6.590;2023-11-19T00:58:29;100343.47;;;21.81;43.27
67038;BME280;53940;53.204;6.590;2023-11-19T01:01:29;100342.47;;;21.82;43.33
67038;BME280;53940;53.204;6.590;2023-11-19T01:04:36;100339.78;;;21.82;43.04
67038;BME280;53940;53.204;6.590;2023-11-19T01:07:36;100334.13;;;21.85;42.97
67038;BME280;53940;53.204;6.590;2023-11-19T01:10:37;100327.91;;;21.85;42.99
67038;BME280;53940;53.204;6.590;2023-11-19T01:13:37;100325.94;;;21.87;43.17
67038;BME280;53940;53.204;6.590;2023-11-19T01:16:37;100325.06;;;21.86;43.01
67038;BME280;53940;53.204;6.590;2023-11-19T01:19:38;100328.59;;;21.87;43.10
67038;BME280;53940;53.204;6.590;2023-11-19T01:22:39;100337.47;;;21.87;43.10
67038;BME280;53940;53.204;6.590;2023-11-19T01:25:39;100340.88;;;21.89;43.18
67038;BME280;53940;53.204;6.590;2023-11-19T01:28:40;100340.88;;;21.89;43.03
67038;BME280;53940;53.204;6.590;2023-11-19T01:31:43;100349.72;;;21.90;43.16
67038;BME280;53940;53.204;6.590;2023-11-19T01:34:45;100335.31;;;21.91;42.93
67038;BME280;53940;53.204;6.590;2023-11-19T01:37:45;100335.50;;;21.89;43.05
67038;BME280;53940;53.204;6.590;2023-11-19T01:40:46;100327.28;;;21.91;43.19
67038;BME280;53940;53.204;6.590;2023-11-19T01:43:46;100331.81;;;21.90;42.97
67038;BME280;53940;53.204;6.590;2023-11-19T01:46:47;100331.81;;;21.90;43.30
67038;BME280;53940;53.204;6.590;2023-11-19T01:49:49;100325.59;;;21.90;43.25
67038;BME280;53940;53.204;6.590;2023-11-19T01:52:54;100321.91;;;21.91;43.19
67038;BME280;53940;53.204;6.590;2023-11-19T01:55:55;100317.38;;;21.91;43.30
67038;BME280;53940;53.204;6.590;2023-11-19T01:58:57;100310.34;;;21.90;43.00
67038;BME280;53940;53.204;6.590;2023-11-19T02:01:57;100304.13;;;21.90;43.17
67038;BME280;53940;53.204;6.590;2023-11-19T02:04:58;100306.66;;;21.91;43.18
67038;BME280;53940;53.204;6.590;2023-11-19T02:07:58;100295.94;;;21.91;43.28
67038;BME280;53940;53.204;6.590;2023-11-19T02:10:59;100295.06;;;21.91;43.09
67038;BME280;53940;53.204;6.590;2023-11-19T02:14:00;100290.56;;;21.91;43.35
67038;BME280;53940;53.204;6.590;2023-11-19T02:17:01;100287.03;;;21.91;43.18
67038;BME280;53940;53.204;6.590;2023-11-19T02:20:02;100293.41;;;21.90;43.34
67038;BME280;53940;53.204;6.590;2023-11-19T02:23:03;100310.34;;;21.90;43.10
67038;BME280;53940;53.204;6.590;2023-11-19T02:29:05;100308.69;;;21.89;43.37
67038;BME280;53940;53.204;6.590;2023-11-19T02:32:06;100298.75;;;21.90;43.05
67038;BME280;53940;53.204;6.590;2023-11-19T02:35:09;100304.97;;;21.90;43.05
67038;BME280;53940;53.204;6.590;2023-11-19T02:38:09;100302.47;;;21.89;43.32
67038;BME280;53940;53.204;6.590;2023-11-19T02:41:11;100308.69;;;21.89;43.05
67038;BME280;53940;53.204;6.590;2023-11-19T02:44:12;100307.81;;;21.89;43.34
67038;BME280;53940;53.204;6.590;2023-11-19T02:47:13;100306.00;;;21.89;43.48
67038;BME280;53940;53.204;6.590;2023-11-19T02:50:14;100314.03;;;21.89;43.47
67038;BME280;53940;53.204;6.590;2023-11-19T02:53:14;100297.94;;;21.89;43.04
67038;BME280;53940;53.204;6.590;2023-11-19T02:56:16;100297.94;;;21.89;43.45
67038;BME280;53940;53.204;6.590;2023-11-19T02:59:25;100294.56;;;21.87;43.26
67038;BME280;53940;53.204;6.590;2023-11-19T03:02:40;100289.19;;;21.87;43.33
67038;BME280;53940;53.204;6.590;2023-11-19T03:05:45;100276.78;;;21.86;43.05
67038;BME280;53940;53.204;6.590;2023-11-19T03:08:46;100282.16;;;21.86;43.35
67038;BME280;53940;53.204;6.590;2023-11-19T03:11:47;100277.66;;;21.87;43.33
67038;BME280;53940;53.204;6.590;2023-11-19T03:14:47;100268.75;;;21.86;43.43
67038;BME280;53940;53.204;6.590;2023-11-19T03:17:50;100276.78;;;21.86;43.20
67038;BME280;53940;53.204;6.590;2023-11-19T03:20:51;100282.16;;;21.86;43.47
67038;BME280;53940;53.204;6.590;2023-11-19T03:23:52;100276.78;;;21.86;43.15
67038;BME280;53940;53.204;6.590;2023-11-19T03:26:52;100278.63;;;21.86;43.32
67038;BME280;53940;53.204;6.590;2023-11-19T03:29:53;100268.06;;;21.84;43.11
67038;BME280;53940;53.204;6.590;2023-11-19T03:32:53;100268.06;;;21.84;43.36
67038;BME280;53940;53.204;6.590;2023-11-19T03:35:54;100262.72;;;21.84;43.40
67038;BME280;53940;53.204;6.590;2023-11-19T03:38:56;100269.91;;;21.84;43.35
67038;BME280;53940;53.204;6.590;2023-11-19T03:41:56;100260.03;;;21.84;43.46
67038;BME280;53940;53.204;6.590;2023-11-19T03:44:57;100261.84;;;21.84;43.51
67038;BME280;53940;53.204;6.590;2023-11-19T03:47:57;100266.41;;;21.83;43.14
67038;BME280;53940;53.204;6.590;2023-11-19T03:50:58;100260.19;;;21.83;43.14
67038;BME280;53940;53.204;6.590;2023-11-19T03:53:58;100259.31;;;21.82;43.35
67038;BME280;53940;53.204;6.590;2023-11-19T03:56:59;100264.69;;;21.82;43.54
67038;BME280;53940;53.204;6.590;2023-11-19T04:00:00;100262.00;;;21.82;43.19
67038;BME280;53940;53.204;6.590;2023-11-19T04:03:05;100263.88;;;21.81;43.54
67038;BME280;53940;53.204;6.590;2023-11-19T04:06:08;100257.66;;;21.81;43.38
67038;BME280;53940;53.204;6.590;2023-11-19T04:09:09;100262.00;;;21.82;43.38
67038;BME280;53940;53.204;6.590;2023-11-19T04:12:10;100249.59;;;21.81;43.46
67038;BME280;53940;53.204;6.590;2023-11-19T04:15:11;100252.28;;;21.81;43.20
67038;BME280;53940;53.204;6.590;2023-11-19T04:18:11;100243.41;;;21.80;43.31
67038;BME280;53940;53.204;6.590;2023-11-19T04:21:12;100249.75;;;21.79;43.21
67038;BME280;53940;53.204;6.590;2023-11-19T04:24:12;100244.41;;;21.79;43.61
67038;BME280;53940;53.204;6.590;2023-11-19T04:27:14;100263.16;;;21.79;43.60
67038;BME280;53940;53.204;6.590;2023-11-19T04:30:14;100243.56;;;21.79;43.57
67038;BME280;53940;53.204;6.590;2023-11-19T04:33:15;100252.63;;;21.78;43.53
67038;BME280;53940;53.204;6.590;2023-11-19T04:36:18;100256.13;;;21.78;43.47
67038;BME280;53940;53.204;6.590;2023-11-19T04:39:19;100255.31;;;21.78;43.59
67038;BME280;53940;53.204;6.590;2023-11-19T04:42:22;100262.50;;;21.77;43.60
67038;BME280;53940;53.204;6.590;2023-11-19T04:45:22;100248.28;;;21.77;43.48
67038;BME280;53940;53.204;6.590;2023-11-19T04:48:23;100259.00;;;21.77;43.55
67038;BME280;53940;53.204;6.590;2023-11-19T04:51:23;100250.09;;;21.76;43.29
67038;BME280;53940;53.204;6.590;2023-11-19T04:54:24;100250.94;;;21.77;43.61
67038;BME280;53940;53.204;6.590;2023-11-19T04:57:24;100251.94;;;21.76;43.58
67038;BME280;53940;53.204;6.590;2023-11-19T05:00:25;100250.94;;;21.77;43.38
67038;BME280;53940;53.204;6.590;2023-11-19T05:03:25;100242.22;;;21.75;43.53
67038;BME280;53940;53.204;6.590;2023-11-19T05:06:30;100243.88;;;21.76;43.48
67038;BME280;53940;53.204;6.590;2023-11-19T05:09:31;100241.19;;;21.76;43.34
67038;BME280;53940;53.204;6.590;2023-11-19T05:12:31;100253.78;;;21.75;43.42
67038;BME280;53940;53.204;6.590;2023-11-19T05:15:32;100246.75;;;21.74;43.28
67038;BME280;53940;53.204;6.590;2023-11-19T05:18:33;100248.56;;;21.74;43.31
67038;BME280;53940;53.204;6.590;2023-11-19T05:21:33;100258.44;;;21.73;43.39
67038;BME280;53940;53.204;6.590;2023-11-19T05:24:34;100257.63;;;21.73;43.40
67038;BME280;53940;53.204;6.590;2023-11-19T05:27:36;100261.13;;;21.73;43.35
67038;BME280;53940;53.204;6.590;2023-11-19T05:30:37;100254.94;;;21.73;43.65
67038;BME280;53940;53.204;6.590;2023-11-19T05:33:37;100260.31;;;21.73;43.71
67038;BME280;53940;53.204;6.590;2023-11-19T05:36:37;100264.81;;;21.72;43.44
67038;BME280;53940;53.204;6.590;2023-11-19T05:39:39;100258.63;;;21.72;43.33
67038;BME280;53940;53.204;6.590;2023-11-19T05:42:40;100274.72;;;21.72;43.62
67038;BME280;53940;53.204;6.590;2023-11-19T05:45:41;100279.25;;;21.71;43.36
67038;BME280;53940;53.204;6.590;2023-11-19T05:48:41;100275.72;;;21.71;43.36
67038;BME280;53940;53.204;6.590;2023-11-19T05:51:42;100274.88;;;21.70;43.35
67038;BME280;53940;53.204;6.590;2023-11-19T05:54:42;100278.41;;;21.71;43.52
67038;BME280;53940;53.204;6.590;2023-11-19T05:57:42;100283.78;;;21.71;43.71
67038;BME280;53940;53.204;6.590;2023-11-19T06:00:43;100282.06;;;21.70;43.62
67038;BME280;53940;53.204;6.590;2023-11-19T06:03:43;100275.84;;;21.69;43.36
67038;BME280;53940;53.204;6.590;2023-11-19T06:06:44;100280.38;;;21.68;43.66
67038;BME280;53940;53.204;6.590;2023-11-19T06:09:44;100288.41;;;21.68;43.50
67038;BME280;53940;53.204;6.590;2023-11-19T06:12:44;100275.84;;;21.69;43.45
67038;BME280;53940;53.204;6.590;2023-11-19T06:15:46;100285.72;;;21.68;43.58
67038;BME280;53940;53.204;6.590;2023-11-19T06:18:46;100275.16;;;21.67;43.37
67038;BME280;53940;53.204;6.590;2023-11-19T06:21:47;100283.19;;;21.67;43.40
67038;BME280;53940;53.204;6.590;2023-11-19T06:24:47;100277.00;;;21.66;43.48
67038;BME280;53940;53.204;6.590;2023-11-19T06:27:47;100289.41;;;21.67;43.38
67038;BME280;53940;53.204;6.590;2023-11-19T06:30:48;100293.91;;;21.67;43.70
67038;BME280;53940;53.204;6.590;2023-11-19T06:33:48;100294.78;;;21.67;43.87
67038;BME280;53940;53.204;6.590;2023-11-19T06:36:49;100300.13;;;21.67;43.77
67038;BME280;53940;53.204;6.590;2023-11-19T06:39:49;100295.78;;;21.66;44.08
67038;BME280;53940;53.204;6.590;2023-11-19T06:42:49;100297.78;;;21.64;44.00
67038;BME280;53940;53.204;6.590;2023-11-19T06:45:54;100301.28;;;21.65;44.04
67038;BME280;53940;53.204;6.590;2023-11-19T06:48:54;100303.97;;;21.65;43.92
67038;BME280;53940;53.204;6.590;2023-11-19T06:51:54;100290.56;;;21.65;44.00
67038;BME280;53940;53.204;6.590;2023-11-19T06:54:55;100300.47;;;21.64;43.95
67038;BME280;53940;53.204;6.590;2023-11-19T06:57:57;100310.34;;;21.64;43.88
67038;BME280;53940;53.204;6.590;2023-11-19T07:00:57;100302.16;;;21.65;44.21
67038;BME280;53940;53.204;6.590;2023-11-19T07:03:57;100304.13;;;21.63;44.19
67038;BME280;53940;53.204;6.590;2023-11-19T07:06:58;100301.78;;;21.60;43.60
67038;BME280;53940;53.204;6.590;2023-11-19T07:09:58;100301.09;;;21.58;43.93
67038;BME280;53940;53.204;6.590;2023-11-19T07:12:59;100297.72;;;21.56;44.14
67038;BME280;53940;53.204;6.590;2023-11-19T07:15:59;100296.38;;;21.52;44.04
67038;BME280;53940;53.204;6.590;2023-11-19T07:19:03;100297.34;;;21.51;44.42
67038;BME280;53940;53.204;6.590;2023-11-19T07:22:04;100298.34;;;21.50;44.13
67038;BME280;53940;53.204;6.590;2023-11-19T07:25:04;100302.91;;;21.49;44.12
67038;BME280;53940;53.204;6.590;2023-11-19T07:28:05;100311.09;;;21.48;44.20
67038;BME280;53940;53.204;6.590;2023-11-19T07:31:05;100305.06;;;21.46;44.02
67038;BME280;53940;53.204;6.590;2023-11-19T07:34:08;100309.41;;;21.47;44.25
67038;BME280;53940;53.204;6.590;2023-11-19T07:37:09;100314.78;;;21.47;44.48
67038;BME280;53940;53.204;6.590;2023-11-19T07:40:09;100324.50;;;21.48;44.42
67038;BME280;53940;53.204;6.590;2023-11-19T07:43:12;100326.03;;;21.50;44.33
67038;BME280;53940;53.204;6.590;2023-11-19T07:46:13;100326.03;;;21.50;44.18
67038;BME280;53940;53.204;6.590;2023-11-19T07:49:14;100332.22;;;21.51;44.29
67038;BME280;53940;53.204;6.590;2023-11-19T07:52:14;100332.72;;;21.54;44.01
67038;BME280;53940;53.204;6.590;2023-11-19T07:55:14;100336.25;;;21.55;44.09
67038;BME280;53940;53.204;6.590;2023-11-19T07:58:15;100337.94;;;21.56;44.59
67038;BME280;53940;53.204;6.590;2023-11-19T08:01:15;100351.34;;;21.56;44.44
67038;BME280;53940;53.204;6.590;2023-11-19T08:04:16;100340.63;;;21.56;44.67
67038;BME280;53940;53.204;6.590;2023-11-19T08:07:16;100350.19;;;21.59;44.49
67038;BME280;53940;53.204;6.590;2023-11-19T08:10:16;100352.41;;;21.63;44.47
67038;BME280;53940;53.204;6.590;2023-11-19T08:13:18;100344.19;;;21.65;44.16
67038;BME280;53940;53.204;6.590;2023-11-19T08:16:18;100344.06;;;21.66;44.20
67038;BME280;53940;53.204;6.590;2023-11-19T08:19:18;100357.16;;;21.70;44.20
67038;BME280;53940;53.204;6.590;2023-11-19T08:22:19;100354.19;;;21.73;44.50
67038;BME280;53940;53.204;6.590;2023-11-19T08:25:19;100363.59;;;21.77;44.12
67038;BME280;53940;53.204;6.590;2023-11-19T08:28:19;100349.84;;;21.80;44.38
67038;BME280;53940;53.204;6.590;2023-11-19T08:31:20;100347.84;;;21.82;43.99
67038;BME280;53940;53.204;6.590;2023-11-19T08:34:20;100356.75;;;21.83;44.12
67038;BME280;53940;53.204;6.590;2023-11-19T08:37:20;100356.59;;;21.84;44.33
67038;BME280;53940;53.204;6.590;2023-11-19T08:40:22;100360.94;;;21.85;44.13
67038;BME280;53940;53.204;6.590;2023-11-19T08:43:22;100351.03;;;21.86;44.05
67038;BME280;53940;53.204;6.590;2023-11-19T08:46:24;100368.84;;;21.87;44.22
67038;BME280;53940;53.204;6.590;2023-11-19T08:49:25;100368.00;;;21.86;44.04
67038;BME280;53940;53.204;6.590;2023-11-19T08:52:26;100360.94;;;21.85;44.00
67038;BME280;53940;53.204;6.590;2023-11-19T08:55:26;100366.31;;;21.85;44.17
67038;BME280;53940;53.204;6.590;2023-11-19T08:58:26;100366.63;;;21.82;44.39
67038;BME280;53940;53.204;6.590;2023-11-19T09:01:27;100379.34;;;21.80;44.29
67038;BME280;53940;53.204;6.590;2023-11-19T09:04:27;100370.63;;;21.78;44.58
67038;BME280;53940;53.204;6.590;2023-11-19T09:07:27;100373.47;;;21.76;44.46
67038;BME280;53940;53.204;6.590;2023-11-19T09:10:28;100379.69;;;21.77;44.51
67038;BME280;53940;53.204;6.590;2023-11-19T09:13:29;100366.28;;;21.77;44.68
67038;BME280;53940;53.204;6.590;2023-11-19T09:16:29;100382.38;;;21.77;44.67
67038;BME280;53940;53.204;6.590;2023-11-19T09:19:32;100379.69;;;21.77;44.64
67038;BME280;53940;53.204;6.590;2023-11-19T09:22:32;100369.13;;;21.75;44.54
67038;BME280;53940;53.204;6.590;2023-11-19T09:25:33;100375.63;;;21.73;44.55
67038;BME280;53940;53.204;6.590;2023-11-19T09:28:33;100377.63;;;21.71;44.47
67038;BME280;53940;53.204;6.590;2023-11-19T09:31:33;100376.78;;;21.70;44.56
67038;BME280;53940;53.204;6.590;2023-11-19T09:34:34;100376.91;;;21.68;44.87
67038;BME280;53940;53.204;6.590;2023-11-19T09:37:35;100372.53;;;21.67;44.83
67038;BME280;53940;53.204;6.590;2023-11-19T09:40:35;100375.22;;;21.67;44.93
67038;BME280;53940;53.204;6.590;2023-11-19T09:43:35;100381.59;;;21.66;44.60
67038;BME280;53940;53.204;6.590;2023-11-19T09:46:40;100385.09;;;21.67;44.67
67038;BME280;53940;53.204;6.590;2023-11-19T09:49:41;100377.22;;;21.65;44.91
67038;BME280;53940;53.204;6.590;2023-11-19T09:52:42;100376.38;;;21.65;44.86
67038;BME280;53940;53.204;6.590;2023-11-19T09:55:44;100369.19;;;21.65;45.05
67038;BME280;53940;53.204;6.590;2023-11-19T09:58:45;100373.84;;;21.63;44.97
67038;BME280;53940;53.204;6.590;2023-11-19T10:01:45;100370.34;;;21.63;44.96
67038;BME280;53940;53.204;6.590;2023-11-19T10:04:46;100373.84;;;21.63;44.84
67038;BME280;53940;53.204;6.590;2023-11-19T10:07:47;100369.50;;;21.62;45.16
67038;BME280;53940;53.204;6.590;2023-11-19T10:10:47;100362.44;;;21.61;45.19
67038;BME280;53940;53.204;6.590;2023-11-19T10:13:48;100374.19;;;21.60;44.82
67038;BME280;53940;53.204;6.590;2023-11-19T10:16:49;100373.31;;;21.60;44.82
67038;BME280;53940;53.204;6.590;2023-11-19T10:19:49;100374.19;;;21.60;44.92
67038;BME280;53940;53.204;6.590;2023-11-19T10:22:56;100371.78;;;21.57;45.10
67038;BME280;53940;53.204;6.590;2023-11-19T10:26:03;100373.66;;;21.57;44.95
67038;BME280;53940;53.204;6.590;2023-11-19T10:29:05;100367.44;;;21.56;45.27
67038;BME280;53940;53.204;6.590;2023-11-19T10:32:05;100371.13;;;21.55;45.13
67038;BME280;53940;53.204;6.590;2023-11-19T10:35:06;100371.97;;;21.56;44.98
67038;BME280;53940;53.204;6.590;2023-11-19T10:38:14;100376.81;;;21.52;45.37
67038;BME280;53940;53.204;6.590;2023-11-19T10:41:31;100379.50;;;21.52;45.15
67038;BME280;53940;53.204;6.590;2023-11-19T10:44:32;100377.63;;;21.52;45.30
67038;BME280;53940;53.204;6.590;2023-11-19T10:47:37;100371.44;;;21.52;45.04
67038;BME280;53940;53.204;6.590;2023-11-19T10:50:41;100378.31;;;21.54;45.01
67038;BME280;53940;53.204;6.590;2023-11-19T10:53:43;100369.75;;;21.51;45.30
67038;BME280;53940;53.204;6.590;2023-11-19T10:56:52;100363.41;;;21.52;45.26
67038;BME280;53940;53.204;6.590;2023-11-19T11:00:01;100360.88;;;21.50;45.30
67038;BME280;53940;53.204;6.590;2023-11-19T11:03:01;100372.59;;;21.49;45.27
67038;BME280;53940;53.204;6.590;2023-11-19T11:06:06;100366.09;;;21.52;45.22
67038;BME280;53940;53.204;6.590;2023-11-19T11:09:08;100366.09;;;21.52;45.23
67038;BME280;53940;53.204;6.590;2023-11-19T11:12:12;100363.41;;;21.52;45.30
67038;BME280;53940;53.204;6.590;2023-11-19T11:15:13;100359.88;;;21.51;44.99
67038;BME280;53940;53.204;6.590;2023-11-19T11:18:16;100359.88;;;21.51;45.16
67038;BME280;53940;53.204;6.590;2023-11-19T11:21:21;100358.19;;;21.50;45.18
67038;BME280;53940;53.204;6.590;2023-11-19T11:28:13;100355.66;;;21.49;45.26
67038;BME280;53940;53.204;6.590;2023-11-19T11:32:00;100350.28;;;21.49;45.33
67038;BME280;53940;53.204;6.590;2023-11-19T11:35:24;100359.34;;;21.48;45.44
67038;BME280;53940;53.204;6.590;2023-11-19T11:38:29;100350.44;;;21.47;45.16
67038;BME280;53940;53.204;6.590;2023-11-19T11:41:33;100353.13;;;21.47;45.16
67038;BME280;53940;53.204;6.590;2023-11-19T11:50:58;100354.81;;;21.48;45.61
67038;BME280;53940;53.204;6.590;2023-11-19T11:53:59;100349.44;;;21.48;45.53
67038;BME280;53940;53.204;6.590;2023-11-19T11:57:11;100353.13;;;21.47;45.56
67038;BME280;53940;53.204;6.590;2023-11-19T12:00:21;100353.97;;;21.48;45.25
67038;BME280;53940;53.204;6.590;2023-11-19T12:03:22;100348.78;;;21.46;45.55
67038;BME280;53940;53.204;6.590;2023-11-19T12:06:23;100360.34;;;21.47;45.21
67038;BME280;53940;53.204;6.590;2023-11-19T12:09:25;100346.09;;;21.46;45.54
67038;BME280;53940;53.204;6.590;2023-11-19T12:12:27;100328.31;;;21.45;45.53
67038;BME280;53940;53.204;6.590;2023-11-19T12:15:28;100346.94;;;21.47;45.33
67038;BME280;53940;53.204;6.590;2023-11-19T12:18:32;100341.59;;;21.47;45.38
67038;BME280;53940;53.204;6.590;2023-11-19T12:21:33;100340.56;;;21.48;45.44
67038;BME280;53940;53.204;6.590;2023-11-19T12:24:33;100338.56;;;21.50;45.30
67038;BME280;53940;53.204;6.590;2023-11-19T12:27:34;100345.63;;;21.51;45.43
67038;BME280;53940;53.204;6.590;2023-11-19T12:30:35;100345.97;;;21.56;45.61
67038;BME280;53940;53.204;6.590;2023-11-19T12:33:36;100338.66;;;21.58;45.63
67038;BME280;53940;53.204;6.590;2023-11-19T12:36:38;100332.94;;;21.61;45.74
67038;BME280;53940;53.204;6.590;2023-11-19T12:39:38;100340.69;;;21.64;45.62
67038;BME280;53940;53.204;6.590;2023-11-19T12:42:40;100339.34;;;21.68;45.90
67038;BME280;53940;53.204;6.590;2023-11-19T12:45:41;100335.00;;;21.67;45.91
67038;BME280;53940;53.204;6.590;2023-11-19T12:48:42;100335.16;;;21.66;45.37
67038;BME280;53940;53.204;6.590;2023-11-19T12:51:42;100339.69;;;21.65;45.63
67038;BME280;53940;53.204;6.590;2023-11-19T12:54:42;100330.78;;;21.65;45.56
67038;BME280;53940;53.204;6.590;2023-11-19T12:57:43;100324.97;;;21.70;45.35
67038;BME280;53940;53.204;6.590;2023-11-19T13:00:43;100331.03;;;21.72;45.55
67038;BME280;53940;53.204;6.590;2023-11-19T13:03:43;100325.34;;;21.75;45.57
67038;BME280;53940;53.204;6.590;2023-11-19T13:06:47;100326.03;;;21.77;45.44
67038;BME280;53940;53.204;6.590;2023-11-19T13:09:48;100326.03;;;21.77;45.38
67038;BME280;53940;53.204;6.590;2023-11-19T13:13:08;100326.72;;;21.79;45.42
67038;BME280;53940;53.204;6.590;2023-11-19T13:16:08;100336.44;;;21.80;45.11
67038;BME280;53940;53.204;6.590;2023-11-19T13:19:09;100338.13;;;21.81;45.05
67038;BME280;53940;53.204;6.590;2023-11-19T13:22:10;100348.03;;;21.80;45.17
67038;BME280;53940;53.204;6.590;2023-11-19T13:25:10;100339.13;;;21.80;45.33
67038;BME280;53940;53.204;6.590;2023-11-19T13:28:10;100332.75;;;21.81;45.03
67038;BME280;53940;53.204;6.590;2023-11-19T13:31:11;100343.63;;;21.79;45.21
67038;BME280;53940;53.204;6.590;2023-11-19T13:34:11;100342.66;;;21.80;45.06
67038;BME280;53940;53.204;6.590;2023-11-19T13:37:11;100334.75;;;21.79;45.07
67038;BME280;53940;53.204;6.590;2023-11-19T13:40:12;100341.81;;;21.80;45.36
67038;BME280;53940;53.204;6.590;2023-11-19T13:43:15;100340.13;;;21.79;45.13
67038;BME280;53940;53.204;6.590;2023-11-19T13:46:15;100332.22;;;21.77;45.25
67038;BME280;53940;53.204;6.590;2023-11-19T13:49:16;100330.41;;;21.78;45.26
67038;BME280;53940;53.204;6.590;2023-11-19T13:52:16;100330.22;;;21.79;45.09
67038;BME280;53940;53.204;6.590;2023-11-19T13:55:17;100328.53;;;21.78;45.32
67038;BME280;53940;53.204;6.590;2023-11-19T13:58:18;100325.03;;;21.78;44.99
67038;BME280;53940;53.204;6.590;2023-11-19T14:01:18;100333.09;;;21.78;44.93
67038;BME280;53940;53.204;6.590;2023-11-19T14:04:19;100338.44;;;21.78;45.23
67038;BME280;53940;53.204;6.590;2023-11-19T14:07:19;100335.78;;;21.78;45.38
67038;BME280;53940;53.204;6.590;2023-11-19T14:10:19;100334.75;;;21.79;45.35
67038;BME280;53940;53.204;6.590;2023-11-19T14:13:20;100340.13;;;21.79;45.36
67038;BME280;53940;53.204;6.590;2023-11-19T14:16:20;100340.94;;;21.79;45.30
67038;BME280;53940;53.204;6.590;2023-11-19T14:19:21;100328.41;;;21.80;45.19
67038;BME280;53940;53.204;6.590;2023-11-19T14:22:21;100327.38;;;21.81;45.25
67038;BME280;53940;53.204;6.590;2023-11-19T14:25:21;100330.06;;;21.81;45.01
67038;BME280;53940;53.204;6.590;2023-11-19T14:28:23;100322.88;;;21.81;45.19
67038;BME280;53940;53.204;6.590;2023-11-19T14:31:28;100330.94;;;21.81;45.37
67038;BME280;53940;53.204;6.590;2023-11-19T14:34:30;100336.13;;;21.83;45.41
67038;BME280;53940;53.204;6.590;2023-11-19T14:37:30;100338.81;;;21.83;45.18
67038;BME280;53940;53.204;6.590;2023-11-19T14:40:33;100328.09;;;21.83;45.39
67038;BME280;53940;53.204;6.590;2023-11-19T14:43:34;100333.28;;;21.85;45.29
67038;BME280;53940;53.204;6.590;2023-11-19T14:46:34;100327.09;;;21.84;45.16
67038;BME280;53940;53.204;6.590;2023-11-19T14:49:35;100335.97;;;21.85;45.31
67038;BME280;53940;53.204;6.590;2023-11-19T14:52:35;100337.63;;;21.86;45.22
67038;BME280;53940;53.204;6.590;2023-11-19T14:55:37;100333.13;;;21.86;45.43
67038;BME280;53940;53.204;6.590;2023-11-19T14:58:37;100341.16;;;21.86;45.35
67038;BME280;53940;53.204;6.590;2023-11-19T15:01:37;100342.03;;;21.87;45.17
67038;BME280;53940;53.204;6.590;2023-11-19T15:04:38;100339.34;;;21.87;45.28
67038;BME280;53940;53.204;6.590;2023-11-19T15:07:38;100339.34;;;21.87;45.36
67038;BME280;53940;53.204;6.590;2023-11-19T15:10:41;100336.66;;;21.87;45.05
67038;BME280;53940;53.204;6.590;2023-11-19T15:13:42;100326.75;;;21.87;45.20
67038;BME280;53940;53.204;6.590;2023-11-19T15:16:43;100344.53;;;21.88;45.10
67038;BME280;53940;53.204;6.590;2023-11-19T15:19:43;100335.81;;;21.86;45.22
67038;BME280;53940;53.204;6.590;2023-11-19T15:22:46;100328.75;;;21.85;45.02
67038;BME280;53940;53.204;6.590;2023-11-19T15:25:46;100328.75;;;21.85;44.96
67038;BME280;53940;53.204;6.590;2023-11-19T15:28:47;100334.13;;;21.85;45.30
67038;BME280;53940;53.204;6.590;2023-11-19T15:31:47;100332.44;;;21.84;44.92
67038;BME280;53940;53.204;6.590;2023-11-19T15:34:47;100337.81;;;21.84;45.08
67038;BME280;53940;53.204;6.590;2023-11-19T15:37:48;100334.28;;;21.84;45.01
67038;BME280;53940;53.204;6.590;2023-11-19T15:40:49;100338.81;;;21.83;45.24
67038;BME280;53940;53.204;6.590;2023-11-19T15:43:49;100337.13;;;21.82;45.16
67038;BME280;53940;53.204;6.590;2023-11-19T15:46:49;100330.06;;;21.81;45.15
67038;BME280;53940;53.204;6.590;2023-11-19T15:49:50;100343.47;;;21.81;45.13
67038;BME280;53940;53.204;6.590;2023-11-19T15:52:50;100338.13;;;21.81;44.98
67038;BME280;53940;53.204;6.590;2023-11-19T15:55:51;100340.81;;;21.81;44.85
67038;BME280;53940;53.204;6.590;2023-11-19T15:58:53;100341.81;;;21.80;44.86
67038;BME280;53940;53.204;6.590;2023-11-19T16:01:53;100341.81;;;21.80;44.77